createdAt,value
2023-01-08T00:05:37.651Z,54.58
2023-01-08T00:25:37.644Z,54.59
2023-01-08T00:45:37.695Z,54.59
2023-01-08T01:05:37.620Z,54.59
2023-01-08T01:25:37.611Z,54.6
2023-01-08T01:45:37.651Z,54.6
2023-01-08T02:25:37.549Z,54.6
2023-01-08T02:45:37.530Z,54.61
2023-01-08T03:25:36.743Z,54.61
2023-01-08T03:45:37.497Z,54.61
2023-01-08T04:25:37.456Z,54.61
2023-01-08T04:45:37.487Z,54.62
2023-01-08T05:05:37.451Z,54.61
2023-01-08T05:25:37.414Z,54.62
2023-01-08T07:45:36.192Z,54.63
2023-01-08T09:25:37.254Z,54.64
2023-01-08T10:25:37.205Z,54.69
2023-01-08T10:45:37.307Z,54.7
2023-01-08T11:45:37.115Z,54.69
2023-01-08T12:05:37.104Z,54.7
2023-01-08T12:25:37.039Z,54.7
2023-01-08T12:45:37.110Z,54.7
2023-01-08T13:05:37.000Z,54.7
2023-01-08T13:25:36.995Z,54.7
2023-01-08T13:45:36.198Z,54.7
2023-01-08T14:05:36.424Z,54.7
2023-01-08T14:25:36.153Z,54.7
2023-01-08T14:45:36.935Z,54.7
2023-01-08T15:05:36.892Z,54.7
2023-01-08T15:45:36.929Z,54.7
2023-01-08T16:05:36.859Z,54.7
2023-01-08T16:25:36.719Z,54.7
2023-01-08T16:45:36.881Z,54.7
2023-01-08T17:05:36.876Z,54.7
2023-01-08T17:25:36.798Z,54.71
2023-01-08T17:45:36.660Z,54.71
2023-01-08T18:05:36.765Z,54.71
2023-01-08T18:25:36.753Z,54.71
2023-01-08T18:45:36.779Z,54.72
2023-01-08T19:05:36.733Z,54.72
2023-01-08T19:25:36.748Z,54.73
2023-01-08T19:45:36.725Z,54.73
2023-01-08T20:05:36.723Z,54.73
2023-01-08T20:25:36.689Z,54.73
2023-01-08T20:45:35.971Z,54.74
2023-01-08T21:05:36.670Z,54.74
2023-01-08T21:25:36.671Z,54.75
2023-01-08T21:45:36.186Z,54.74
2023-01-08T22:05:35.880Z,54.74
2023-01-08T22:25:36.104Z,54.76
2023-01-08T22:45:36.642Z,54.77
2023-01-08T23:05:36.588Z,54.78
2023-01-08T23:25:36.564Z,54.76
